TimeGMT,TemperatureF,Dew PointF,Humidity,Sea Level PressureIn,VisibilityMPH,Wind Direction,Wind SpeedMPH,Gust SpeedMPH,PrecipitationIn,Events,Conditions,WindDirDegrees,DateUTC
12:00 AM,35,30,77,30.12,19,SE,12.7,,,,Mostly Cloudy,130,2013-12-07 00:00:00
12:20 AM,35.6,32.0,87,30.12,6.2,SE,9.2,-,N/A,,Mostly Cloudy,140,2013-12-07 00:20:00
12:50 AM,35.6,32.0,87,30.09,3.7,SE,10.4,-,N/A,,Mostly Cloudy,130,2013-12-07 00:50:00
1:20 AM,35.6,32.0,87,30.09,6.2,SE,9.2,-,N/A,,Overcast,130,2013-12-07 01:20:00
1:50 AM,35.6,32.0,87,30.06,6.2,SE,10.4,-,N/A,,Overcast,130,2013-12-07 01:50:00
2:20 AM,35.6,32.0,87,30.06,3.7,SE,9.2,-,N/A,,Mostly Cloudy,140,2013-12-07 02:20:00
2:50 AM,35.6,32.0,87,30.06,6.2,SE,5.8,-,N/A,,Mostly Cloudy,140,2013-12-07 02:50:00
3:00 AM,36,32,81,30.05,16,SE,10.4,,,,Overcast,140,2013-12-07 03:00:00
3:20 AM,37.4,33.8,87,30.04,3.1,ESE,8.1,-,N/A,,Overcast,120,2013-12-07 03:20:00
3:50 AM,37.4,33.8,87,30.04,1.4,ESE,8.1,-,N/A,,Overcast,110,2013-12-07 03:50:00
4:20 AM,37.4,33.8,87,30.01,1.8,ESE,6.9,-,N/A,,Overcast,110,2013-12-07 04:20:00
4:50 AM,37.4,35.6,93,30.01,3.1,ESE,6.9,-,N/A,,Mostly Cloudy,110,2013-12-07 04:50:00
5:20 AM,39.2,37.4,93,29.98,3.7,ESE,5.8,-,N/A,Rain,Light Rain,120,2013-12-07 05:20:00
5:50 AM,41.0,41.0,100,29.98,3.7,SE,9.2,-,N/A,Rain,Light Rain,140,2013-12-07 05:50:00
6:00 AM,41,39,92,29.97,5,SE,10.4,,,,,130,2013-12-07 06:00:00
6:20 AM,41.0,41.0,100,29.95,5.0,SSW,8.1,-,N/A,Rain,Light Rain,200,2013-12-07 06:20:00
6:50 AM,42.8,41.0,93,29.95,5.0,SW,5.8,-,N/A,Rain,Light Rain,220,2013-12-07 06:50:00
7:20 AM,41.0,41.0,100,29.95,6.2,SW,5.8,-,N/A,Rain,Light Rain,220,2013-12-07 07:20:00
7:50 AM,41.0,41.0,100,29.95,6.2,SW,6.9,-,N/A,,Scattered Clouds,220,2013-12-07 07:50:00
8:20 AM,41.0,41.0,100,29.95,6.2,SSW,5.8,-,N/A,,Scattered Clouds,210,2013-12-07 08:20:00
8:50 AM,42.8,41.0,93,29.92,6.2,SW,11.5,-,N/A,Rain,Light Rain,230,2013-12-07 08:50:00
9:00 AM,42,40,91,29.93,12,SW,12.7,,,,Scattered Clouds,230,2013-12-07 09:00:00
9:20 AM,42.8,41.0,93,29.92,6.2,SW,9.2,-,N/A,Rain,Light Rain,220,2013-12-07 09:20:00
9:50 AM,44.6,42.8,93,29.92,6.2,SW,9.2,-,N/A,Rain,Light Rain,220,2013-12-07 09:50:00
10:20 AM,46.4,44.6,93,29.92,6.2,SSW,10.4,-,N/A,Rain,Light Rain,200,2013-12-07 10:20:00
10:50 AM,46.4,46.4,100,29.92,6.2,SSW,11.5,-,N/A,Rain,Light Rain,200,2013-12-07 10:50:00
11:20 AM,46.4,44.6,93,29.89,6.2,SSW,6.9,-,N/A,,Mostly Cloudy,200,2013-12-07 11:20:00
11:50 AM,46.4,44.6,93,29.89,6.2,SSW,6.9,-,N/A,,Mostly Cloudy,210,2013-12-07 11:50:00
12:00 PM,47,44,86,29.88,22,SSW,9.2,,,,Mostly Cloudy,210,2013-12-07 12:00:00
12:20 PM,46.4,44.6,93,29.89,6.2,WSW,17.3,-,N/A,Rain,Light Rain,240,2013-12-07 12:20:00
12:50 PM,46.4,44.6,93,29.86,6.2,SW,13.8,-,N/A,Rain,Light Rain,230,2013-12-07 12:50:00
1:20 PM,46.4,44.6,93,29.86,6.2,SW,16.1,-,N/A,Rain,Light Rain,230,2013-12-07 13:20:00
1:50 PM,46.4,44.6,93,29.83,6.2,SW,15.0,-,N/A,Rain,Light Rain,220,2013-12-07 13:50:00
2:20 PM,46.4,44.6,93,29.83,6.2,SW,16.1,-,N/A,Rain,Light Rain,220,2013-12-07 14:20:00
2:50 PM,46.4,44.6,93,29.83,6.2,SW,16.1,-,N/A,Rain,Light Rain,220,2013-12-07 14:50:00
3:00 PM,48,44,83,29.82,11,SW,20.7,,,Rain,Light Rain,220,2013-12-07 15:00:00
3:20 PM,46.4,44.6,93,29.80,6.2,SW,17.3,-,N/A,Rain,Light Rain,220,2013-12-07 15:20:00
3:50 PM,46.4,44.6,93,29.80,6.2,SSW,16.1,-,N/A,Rain,Light Rain,210,2013-12-07 15:50:00
4:20 PM,48.2,44.6,87,29.77,6.2,SSW,16.1,-,N/A,,Mostly Cloudy,210,2013-12-07 16:20:00
4:50 PM,48.2,44.6,87,29.77,6.2,SSW,16.1,-,N/A,,Mostly Cloudy,210,2013-12-07 16:50:00
5:20 PM,48.2,44.6,87,29.77,6.2,SW,19.6,-,N/A,,Scattered Clouds,220,2013-12-07 17:20:00
5:50 PM,48.2,44.6,87,29.74,6.2,SW,17.3,-,N/A,,Scattered Clouds,220,2013-12-07 17:50:00
6:00 PM,48,45,84,29.75,8,SW,21.9,,,Rain,Light Rain,220,2013-12-07 18:00:00
6:20 PM,48.2,44.6,87,29.74,6.2,SW,18.4,-,N/A,,Mostly Cloudy,230,2013-12-07 18:20:00
6:50 PM,48.2,44.6,87,29.71,6.2,SW,15.0,-,N/A,,Partly Cloudy,220,2013-12-07 18:50:00
7:20 PM,50.0,46.4,87,29.71,6.2,SW,25.3,-,N/A,,Scattered Clouds,230,2013-12-07 19:20:00
7:50 PM,50.0,46.4,87,29.71,3.7,SW,26.5,38.0,N/A,,Mostly Cloudy,230,2013-12-07 19:50:00
8:20 PM,50.0,46.4,87,29.68,6.2,SW,32.2,47.2,N/A,,Scattered Clouds,230,2013-12-07 20:20:00
8:50 PM,51.8,46.4,82,29.68,6.2,SW,25.3,40.3,N/A,,Mostly Cloudy,230,2013-12-07 20:50:00
9:00 PM,51,46,77,29.69,11,SW,24.2,,,Rain,Light Rain,230,2013-12-07 21:00:00
9:20 PM,50.0,46.4,87,29.68,4.3,SW,28.8,43.7,N/A,,Scattered Clouds,230,2013-12-07 21:20:00
9:50 PM,50.0,46.4,87,29.68,4.3,WSW,31.1,42.6,N/A,,Mostly Cloudy,240,2013-12-07 21:50:00
10:20 PM,50.0,46.4,87,29.68,3.7,WSW,27.6,-,N/A,,Scattered Clouds,240,2013-12-07 22:20:00
10:50 PM,50.0,46.4,87,29.68,-9999.0,WSW,31.1,-,N/A,,Scattered Clouds,250,2013-12-07 22:50:00
11:20 PM,50.0,46.4,87,29.68,5.6,WSW,23.0,-,N/A,,Scattered Clouds,250,2013-12-07 23:20:00
11:50 PM,48.2,44.6,87,29.68,4.3,WSW,18.4,-,N/A,,Mostly Cloudy,240,2013-12-07 23:50:00